This is the latest recevied weather packets stored in our database for station/object SALIDA. If no packets are shown the sender has not sent any weather packets the latest 10 day(s).
| Time | Temp. | Humidity | Pressure | Rain* | Wind** | Luminosity | Snow |
|---|---|---|---|---|---|---|---|
| 1777389401 | 9.44° C | 42% | 1009 hPa | 0 mm | - | - | - |
| 1777388501 | 9.44° C | 46% | 1008.9 hPa | 0 mm | - | - | - |
| 1777387601 | 8.33° C | 46% | 1008.8 hPa | 0 mm | - | - | - |
| 1777386701 | 7.22° C | 49% | 1008.8 hPa | 0 mm | - | - | - |
| 1777385801 | 5° C | 69% | 1008.8 hPa | 0 mm | - | - | - |
| 1777384901 | 5° C | 69% | 1009.2 hPa | 0 mm | - | - | - |
| 1777384001 | 3.89° C | 73% | 1008 hPa | 0 mm | - | - | - |
| 1777383101 | 3.33° C | 75% | 1007.5 hPa | 0 mm | - | - | - |
| 1777382201 | 2.78° C | 76% | 1007.1 hPa | 0 mm | - | - | - |
| 1777381301 | 2.22° C | 77% | 1006.6 hPa | 0 mm | - | - | - |
| 1777380404 | - | - | 0 hPa | 0 mm | - | - | - |
| 1777360196 | -1.11° C | 76% | 1007.6 hPa | 0 mm | - | - | - |
| 1777359296 | -0.56° C | 76% | 1007.5 hPa | 0 mm | - | - | - |
| 1777358396 | -0.56° C | 75% | 1007.5 hPa | 0 mm | - | - | - |
| 1777357496 | 0° C | 75% | 1007.5 hPa | 0 mm | - | - | - |
| 1777356596 | 0° C | 74% | 1007.4 hPa | 0 mm | - | - | - |
| 1777355696 | 0° C | 74% | 1007.3 hPa | 0 mm | - | - | - |
| 1777354796 | 0.56° C | 73% | 1007.3 hPa | 0 mm | - | - | - |
| 1777353896 | 1.11° C | 72% | 1007.4 hPa | 0 mm | - | - | - |
| 1777352996 | 1.67° C | 72% | 1007.2 hPa | 0 mm | - | - | - |
| 1777352096 | 2.22° C | 71% | 1007.1 hPa | 0 mm | - | - | - |
| 1777351196 | 2.22° C | 70% | 1007.2 hPa | 0 mm | - | - | - |
| 1777350296 | 3.33° C | 67% | 1007.3 hPa | 0 mm | - | - | - |
| 1777349396 | 3.33° C | 67% | 1007 hPa | 0 mm | - | - | - |
| 1777348496 | 3.89° C | 66% | 1007.1 hPa | 0 mm | - | - | - |
* Rain latest hour (hover to see other rain measurements)
** Current wind speed in m/s (hover to see current wind gust speed)